createdAt,value
2022-11-13T00:04:21.382Z,99.99
2022-11-13T00:09:22.567Z,99.99
2022-11-13T00:14:23.665Z,99.99
2022-11-13T00:19:24.769Z,99.99
2022-11-13T00:24:26.917Z,99.99
2022-11-13T00:29:26.000Z,99.99
2022-11-13T00:34:46.421Z,99.99
2022-11-13T00:39:27.172Z,99.99
2022-11-13T00:44:29.280Z,99.99
2022-11-13T00:49:28.379Z,99.99
2022-11-13T00:54:30.502Z,99.99
2022-11-13T00:59:31.627Z,99.99
2022-11-13T01:04:30.743Z,99.99
2022-11-13T01:09:31.878Z,99.99
2022-11-13T01:14:32.978Z,99.99
2022-11-13T01:19:34.095Z,99.99
2022-11-13T01:24:35.192Z,99.99
2022-11-13T01:29:37.311Z,99.99
2022-11-13T01:34:37.418Z,99.99
2022-11-13T01:39:36.541Z,99.99
2022-11-13T01:44:38.661Z,99.99
2022-11-13T01:49:37.796Z,99.99
2022-11-13T01:54:39.911Z,99.99
2022-11-13T01:59:39.087Z,99.99
2022-11-13T02:04:40.264Z,99.99
2022-11-13T02:09:41.377Z,99.99
2022-11-13T02:14:42.509Z,99.99
2022-11-13T02:19:43.609Z,99.99
2022-11-13T02:24:47.915Z,99.99
2022-11-13T02:29:45.001Z,99.99
2022-11-13T02:34:47.102Z,99.99
2022-11-13T02:39:47.250Z,99.99
2022-11-13T02:44:46.361Z,99.99
2022-11-13T02:49:47.479Z,99.99
2022-11-13T02:54:48.627Z,99.99
2022-11-13T02:59:49.724Z,99.99
2022-11-13T03:05:11.366Z,99.99
2022-11-13T03:09:51.814Z,99.99
2022-11-13T03:14:52.905Z,99.99
2022-11-13T03:19:55.005Z,99.99
2022-11-13T03:24:55.115Z,99.99
2022-11-13T03:29:55.209Z,99.99
2022-11-13T03:34:54.333Z,99.99
2022-11-13T03:39:56.440Z,99.99
2022-11-13T03:44:55.546Z,99.99
2022-11-13T03:49:58.656Z,99.99
2022-11-13T03:54:57.769Z,99.99
2022-11-13T03:59:58.873Z,99.99
2022-11-13T04:04:59.958Z,99.99
2022-11-13T04:10:01.138Z,99.99
2022-11-13T04:15:02.250Z,99.99
2022-11-13T04:20:04.387Z,99.99
2022-11-13T04:25:03.465Z,99.99
2022-11-13T04:30:05.146Z,99.99
2022-11-13T04:35:04.312Z,99.99
2022-11-13T04:40:05.493Z,99.99
2022-11-13T04:45:06.581Z,99.99
2022-11-13T04:50:08.695Z,99.99
2022-11-13T04:55:07.788Z,99.99
2022-11-13T05:00:07.992Z,99.99
2022-11-13T05:05:09.200Z,99.99
2022-11-13T05:10:10.389Z,99.99
2022-11-13T05:15:12.470Z,99.99
2022-11-13T05:20:11.572Z,99.99
2022-11-13T05:25:12.689Z,99.99
2022-11-13T05:30:14.813Z,99.99
2022-11-13T05:35:13.935Z,99.99
2022-11-13T05:40:15.081Z,99.99
2022-11-13T05:45:16.216Z,99.99
2022-11-13T05:50:18.351Z,99.99
2022-11-13T05:55:20.049Z,99.99
2022-11-13T06:00:18.356Z,99.99
2022-11-13T06:05:17.464Z,99.99
2022-11-13T06:10:18.557Z,99.99
2022-11-13T06:15:19.658Z,99.99
2022-11-13T06:20:20.756Z,99.99
2022-11-13T06:25:21.863Z,99.99
2022-11-13T06:30:22.966Z,99.99
2022-11-13T06:35:24.074Z,99.99
2022-11-13T06:40:25.157Z,99.99
2022-11-13T06:45:26.249Z,99.99
2022-11-13T06:50:27.336Z,99.99
2022-11-13T06:55:28.434Z,99.99
2022-11-13T07:00:35.241Z,99.99
2022-11-13T07:05:30.494Z,99.99
2022-11-13T07:10:29.678Z,99.99
2022-11-13T07:15:30.783Z,99.99
2022-11-13T07:20:32.881Z,99.99
2022-11-13T07:25:31.978Z,99.99
2022-11-13T07:30:34.069Z,99.99
2022-11-13T07:35:33.174Z,99.99
2022-11-13T07:40:34.275Z,99.99
2022-11-13T07:45:34.435Z,99.99
2022-11-13T07:50:35.522Z,99.99
2022-11-13T07:55:36.621Z,99.99
2022-11-13T08:00:37.912Z,99.94
2022-11-13T08:05:39.032Z,99.99
2022-11-13T08:10:40.148Z,99.99
2022-11-13T08:15:41.352Z,99.99
2022-11-13T08:20:43.431Z,99.99
2022-11-13T08:25:42.531Z,99.99
2022-11-13T08:30:43.626Z,99.73
2022-11-13T08:35:44.728Z,99.99
2022-11-13T08:40:45.825Z,98.29
2022-11-13T08:45:47.945Z,99.06
2022-11-13T08:50:47.071Z,99.01
2022-11-13T08:55:48.162Z,98.91
2022-11-13T09:00:49.262Z,99.63
2022-11-13T09:05:50.657Z,99.06
2022-11-13T09:10:52.838Z,98.29
2022-11-13T09:15:53.161Z,99.84
2022-11-13T09:20:52.279Z,99.16
2022-11-13T09:25:53.482Z,99.52
2022-11-13T09:30:54.642Z,99.87
2022-11-13T09:35:56.762Z,99.99
2022-11-13T09:40:56.862Z,98.02
2022-11-13T09:45:57.002Z,98.19
2022-11-13T09:50:57.102Z,96.45
2022-11-13T09:55:56.282Z,98.02
2022-11-13T10:00:57.476Z,97.98
2022-11-13T10:05:58.686Z,97.36
2022-11-13T10:10:59.961Z,98.85
2022-11-13T10:16:01.107Z,99.37
2022-11-13T10:21:08.279Z,99.47
2022-11-13T10:26:04.323Z,99.37
2022-11-13T10:31:03.465Z,99.52
2022-11-13T10:36:04.718Z,98.39
2022-11-13T10:41:06.890Z,96.96
2022-11-13T10:46:06.025Z,95.37
2022-11-13T10:51:07.129Z,93.58
2022-11-13T10:56:08.264Z,94.05
2022-11-13T11:01:09.442Z,92.82
2022-11-13T11:06:10.660Z,93.12
2022-11-13T11:11:11.848Z,92.30
2022-11-13T11:16:12.984Z,95.21
2022-11-13T11:21:14.476Z,97.42
2022-11-13T11:26:13.604Z,97.47
2022-11-13T11:31:14.818Z,97.67
2022-11-13T11:36:15.995Z,97.88
2022-11-13T11:41:19.097Z,98.29
2022-11-13T11:46:18.535Z,97.56
2022-11-13T11:51:18.723Z,97.67
2022-11-13T11:56:17.931Z,97.61
2022-11-13T12:01:19.255Z,96.84
2022-11-13T12:06:21.405Z,96.49
2022-11-13T12:11:20.610Z,96.53
2022-11-13T12:16:25.020Z,96.84
2022-11-13T12:21:21.649Z,96.44
2022-11-13T12:26:22.803Z,96.58
2022-11-13T12:31:23.968Z,95.81
2022-11-13T12:36:25.125Z,96.70
2022-11-13T12:41:26.793Z,96.95
2022-11-13T12:46:25.885Z,96.95
2022-11-13T12:51:27.057Z,96.28
2022-11-13T12:56:28.216Z,96.33
2022-11-13T13:01:29.507Z,96.64
2022-11-13T13:06:30.720Z,97.01
2022-11-13T13:11:32.847Z,95.62
2022-11-13T13:16:33.978Z,94.76
2022-11-13T13:21:33.121Z,94.08
2022-11-13T13:26:34.330Z,95.15
2022-11-13T13:31:35.556Z,95.52
2022-11-13T13:36:37.678Z,95.15
2022-11-13T13:41:36.828Z,94.74
2022-11-13T13:46:38.025Z,95.31
2022-11-13T13:51:39.257Z,93.87
2022-11-13T13:56:40.389Z,95.67
2022-11-13T14:01:42.535Z,95.56
2022-11-13T14:06:41.759Z,96.02
2022-11-13T14:11:42.910Z,96.84
2022-11-13T14:16:44.050Z,96.74
2022-11-13T14:21:45.166Z,95.92
2022-11-13T14:26:47.253Z,96.12
2022-11-13T14:31:46.385Z,96.02
2022-11-13T14:36:47.466Z,96.17
2022-11-13T14:41:49.572Z,96.44
2022-11-13T14:46:48.703Z,96.12
2022-11-13T14:51:49.823Z,95.81
2022-11-13T14:56:51.574Z,95.71
2022-11-13T15:01:50.878Z,96.48
2022-11-13T15:06:52.091Z,97.26
2022-11-13T15:11:53.262Z,96.48
2022-11-13T15:16:55.357Z,97.41
2022-11-13T15:22:25.920Z,97.16
2022-11-13T15:26:54.529Z,97.09
2022-11-13T15:31:56.924Z,97.61
2022-11-13T15:36:57.503Z,97.92
2022-11-13T15:41:56.599Z,98.13
2022-11-13T15:46:57.678Z,97.41
2022-11-13T15:51:58.775Z,98.18
2022-11-13T15:56:59.878Z,97.41
2022-11-13T16:02:01.075Z,98.28
2022-11-13T16:07:02.462Z,98.33
2022-11-13T16:12:00.658Z,96.69
2022-11-13T16:17:02.797Z,97.41
2022-11-13T16:22:01.970Z,96.64
2022-11-13T16:27:04.076Z,96.53
2022-11-13T16:32:04.492Z,96.39
2022-11-13T16:37:03.701Z,95.77
2022-11-13T16:42:05.900Z,95.36
2022-11-13T16:47:05.110Z,94.84
2022-11-13T16:52:06.468Z,94.74
2022-11-13T16:57:09.791Z,94.95
2022-11-13T17:02:09.058Z,94.70
2022-11-13T17:07:11.101Z,94.32
2022-11-13T17:12:11.369Z,95.09
2022-11-13T17:17:11.968Z,94.32
2022-11-13T17:22:11.187Z,95.61
2022-11-13T17:27:12.540Z,94.84
2022-11-13T17:32:11.984Z,93.66
2022-11-13T17:37:14.372Z,94.18
2022-11-13T17:42:13.775Z,94.08
2022-11-13T17:47:15.196Z,93.66
2022-11-13T17:52:17.652Z,94.02
2022-11-13T17:57:17.041Z,94.12
2022-11-13T18:02:19.423Z,94.74
2022-11-13T18:07:18.969Z,93.60
2022-11-13T18:12:18.267Z,94.64
2022-11-13T18:17:20.794Z,94.64
2022-11-13T18:22:22.229Z,94.64
2022-11-13T18:27:22.660Z,94.64
2022-11-13T18:32:23.203Z,94.84
2022-11-13T18:37:22.416Z,95.30
2022-11-13T18:42:23.747Z,95.40
2022-11-13T18:47:26.166Z,95.20
2022-11-13T18:52:25.667Z,96.02
2022-11-13T18:57:26.088Z,96.48
2022-11-13T19:02:26.299Z,97.66
2022-11-13T19:07:25.770Z,98.18
2022-11-13T19:12:26.298Z,97.41
2022-11-13T19:17:25.741Z,97.05
2022-11-13T19:22:26.997Z,95.55
2022-11-13T19:27:28.493Z,96.89
2022-11-13T19:32:28.925Z,96.02
2022-11-13T19:37:29.197Z,95.92
2022-11-13T19:42:28.629Z,95.40
2022-11-13T19:47:30.063Z,95.45
2022-11-13T19:52:32.459Z,96.06
2022-11-13T19:57:34.567Z,95.96
2022-11-13T20:02:33.038Z,95.76
2022-11-13T20:07:32.505Z,95.20
2022-11-13T20:12:32.306Z,94.89
2022-11-13T20:17:31.847Z,96.31
2022-11-13T20:22:32.311Z,96.73
2022-11-13T20:27:33.063Z,97.45
2022-11-13T20:32:31.981Z,96.52
2022-11-13T20:37:33.393Z,96.42
2022-11-13T20:42:34.862Z,95.86
2022-11-13T20:47:36.239Z,95.49
2022-11-13T20:52:37.418Z,97.50
2022-11-13T20:57:41.118Z,97.08
2022-11-13T21:02:38.599Z,96.98
2022-11-13T21:07:40.812Z,97.33
2022-11-13T21:12:39.977Z,98.83
2022-11-13T21:17:42.305Z,99.34
2022-11-13T21:22:41.701Z,98.78
2022-11-13T21:27:43.072Z,98.68
2022-11-13T21:32:44.190Z,98.11
2022-11-13T21:37:45.313Z,98.06
2022-11-13T21:42:46.456Z,97.75
2022-11-13T21:47:47.559Z,98.99
2022-11-13T21:52:48.707Z,98.52
2022-11-13T21:57:49.787Z,98.83
2022-11-13T22:02:51.885Z,99.14
2022-11-13T22:07:52.023Z,98.72
2022-11-13T22:12:51.111Z,98.10
2022-11-13T22:17:52.273Z,98.21
2022-11-13T22:22:54.396Z,97.54
2022-11-13T22:27:54.486Z,97.75
2022-11-13T22:32:53.951Z,98.21
2022-11-13T22:37:53.052Z,98.72
2022-11-13T22:42:55.148Z,98.72
2022-11-13T22:47:54.276Z,97.85
2022-11-13T22:52:56.465Z,97.13
2022-11-13T22:57:55.559Z,97.75
2022-11-13T23:02:57.700Z,97.19
2022-11-13T23:07:57.786Z,97.08
2022-11-13T23:12:57.893Z,96.98
2022-11-13T23:17:57.977Z,97.64
2022-11-13T23:22:57.069Z,99.99
2022-11-13T23:27:58.257Z,99.99
2022-11-13T23:32:59.371Z,99.86
2022-11-13T23:38:00.473Z,99.14
2022-11-13T23:43:01.562Z,98.16
2022-11-13T23:48:03.692Z,98.57
2022-11-13T23:53:02.795Z,97.96
2022-11-13T23:58:03.910Z,98.16
